sensor_id;sensor_type;location;lat;lon;timestamp;P1;durP1;ratioP1;P2;durP2;ratioP2
3777;SDS011;1904;50.076;8.660;2022-09-09T00:04:53;6.27;;;1.87;;
3777;SDS011;1904;50.076;8.660;2022-09-09T00:07:33;6.30;;;1.80;;
3777;SDS011;1904;50.076;8.660;2022-09-09T00:13:33;5.53;;;1.57;;
3777;SDS011;1904;50.076;8.660;2022-09-09T00:39:45;8.63;;;1.93;;
3777;SDS011;1904;50.076;8.660;2022-09-09T01:03:55;6.10;;;2.20;;
3777;SDS011;1904;50.076;8.660;2022-09-09T01:06:31;7.50;;;2.27;;
3777;SDS011;1904;50.076;8.660;2022-09-09T01:11:57;5.07;;;1.70;;
3777;SDS011;1904;50.076;8.660;2022-09-09T01:17:46;8.83;;;1.80;;
3777;SDS011;1904;50.076;8.660;2022-09-09T01:23:52;2.90;;;2.00;;
3777;SDS011;1904;50.076;8.660;2022-09-09T01:29:47;7.20;;;1.60;;
3777;SDS011;1904;50.076;8.660;2022-09-09T01:48:42;4.03;;;2.23;;
3777;SDS011;1904;50.076;8.660;2022-09-09T01:51:13;6.30;;;2.00;;
3777;SDS011;1904;50.076;8.660;2022-09-09T01:53:39;8.03;;;3.00;;
3777;SDS011;1904;50.076;8.660;2022-09-09T01:59:14;16.30;;;2.13;;
3777;SDS011;1904;50.076;8.660;2022-09-09T02:04:42;7.00;;;2.00;;
3777;SDS011;1904;50.076;8.660;2022-09-09T02:12:50;3.60;;;2.00;;
3777;SDS011;1904;50.076;8.660;2022-09-09T02:18:13;3.77;;;1.90;;
3777;SDS011;1904;50.076;8.660;2022-09-09T02:20:43;12.87;;;2.03;;
3777;SDS011;1904;50.076;8.660;2022-09-09T02:28:55;2.53;;;2.20;;
3777;SDS011;1904;50.076;8.660;2022-09-09T02:31:25;3.80;;;2.23;;
3777;SDS011;1904;50.076;8.660;2022-09-09T02:37:12;12.27;;;2.47;;
3777;SDS011;1904;50.076;8.660;2022-09-09T02:50:00;3.37;;;2.07;;
3777;SDS011;1904;50.076;8.660;2022-09-09T02:56:05;5.60;;;2.27;;
3777;SDS011;1904;50.076;8.660;2022-09-09T03:14:36;5.70;;;1.90;;
3777;SDS011;1904;50.076;8.660;2022-09-09T03:17:07;7.47;;;1.73;;
3777;SDS011;1904;50.076;8.660;2022-09-09T03:19:37;1.90;;;1.63;;
3777;SDS011;1904;50.076;8.660;2022-09-09T03:22:03;5.67;;;1.80;;
3777;SDS011;1904;50.076;8.660;2022-09-09T03:24:29;6.63;;;2.47;;
3777;SDS011;1904;50.076;8.660;2022-09-09T03:27:07;10.13;;;2.00;;
3777;SDS011;1904;50.076;8.660;2022-09-09T03:32:42;3.40;;;1.80;;
3777;SDS011;1904;50.076;8.660;2022-09-09T03:35:19;4.10;;;1.77;;
3777;SDS011;1904;50.076;8.660;2022-09-09T03:37:49;9.07;;;2.50;;
3777;SDS011;1904;50.076;8.660;2022-09-09T03:40:31;2.40;;;2.20;;
3777;SDS011;1904;50.076;8.660;2022-09-09T03:43:00;4.13;;;2.30;;
3777;SDS011;1904;50.076;8.660;2022-09-09T03:48:23;4.07;;;2.20;;
3777;SDS011;1904;50.076;8.660;2022-09-09T03:50:55;8.10;;;2.00;;
3777;SDS011;1904;50.076;8.660;2022-09-09T03:53:23;3.70;;;1.60;;
3777;SDS011;1904;50.076;8.660;2022-09-09T03:55:55;16.17;;;1.93;;
3777;SDS011;1904;50.076;8.660;2022-09-09T03:58:25;4.73;;;2.07;;
3777;SDS011;1904;50.076;8.660;2022-09-09T04:01:02;6.43;;;2.23;;
3777;SDS011;1904;50.076;8.660;2022-09-09T04:06:35;3.10;;;2.00;;
3777;SDS011;1904;50.076;8.660;2022-09-09T04:09:19;7.60;;;1.93;;
3777;SDS011;1904;50.076;8.660;2022-09-09T04:11:49;3.97;;;1.70;;
3777;SDS011;1904;50.076;8.660;2022-09-09T04:14:30;4.90;;;1.83;;
3777;SDS011;1904;50.076;8.660;2022-09-09T04:17:01;3.10;;;1.67;;
3777;SDS011;1904;50.076;8.660;2022-09-09T04:19:31;6.90;;;2.23;;
3777;SDS011;1904;50.076;8.660;2022-09-09T04:25:25;5.37;;;2.87;;
3777;SDS011;1904;50.076;8.660;2022-09-09T04:27:55;10.33;;;2.77;;
3777;SDS011;1904;50.076;8.660;2022-09-09T04:30:26;6.20;;;2.10;;
3777;SDS011;1904;50.076;8.660;2022-09-09T04:32:52;11.50;;;2.50;;
3777;SDS011;1904;50.076;8.660;2022-09-09T04:35:25;4.00;;;2.10;;
3777;SDS011;1904;50.076;8.660;2022-09-09T04:38:07;8.93;;;2.20;;
3777;SDS011;1904;50.076;8.660;2022-09-09T04:40:37;4.50;;;2.27;;
3777;SDS011;1904;50.076;8.660;2022-09-09T04:43:13;7.87;;;1.73;;
3777;SDS011;1904;50.076;8.660;2022-09-09T04:45:49;9.17;;;1.80;;
3777;SDS011;1904;50.076;8.660;2022-09-09T04:48:25;2.13;;;1.90;;
3777;SDS011;1904;50.076;8.660;2022-09-09T04:51:08;9.97;;;2.50;;
3777;SDS011;1904;50.076;8.660;2022-09-09T05:03:03;6.17;;;2.33;;
3777;SDS011;1904;50.076;8.660;2022-09-09T05:05:43;6.53;;;1.80;;
3777;SDS011;1904;50.076;8.660;2022-09-09T05:08:13;4.20;;;2.00;;
3777;SDS011;1904;50.076;8.660;2022-09-09T05:10:39;3.40;;;1.60;;
3777;SDS011;1904;50.076;8.660;2022-09-09T05:13:07;5.70;;;1.93;;
3777;SDS011;1904;50.076;8.660;2022-09-09T05:15:50;3.47;;;1.90;;
3777;SDS011;1904;50.076;8.660;2022-09-09T05:18:19;3.37;;;1.77;;
3777;SDS011;1904;50.076;8.660;2022-09-09T05:20:58;3.47;;;1.80;;
3777;SDS011;1904;50.076;8.660;2022-09-09T05:23:25;4.53;;;1.73;;
3777;SDS011;1904;50.076;8.660;2022-09-09T05:28:46;6.63;;;2.27;;
3777;SDS011;1904;50.076;8.660;2022-09-09T05:31:14;2.20;;;1.90;;
3777;SDS011;1904;50.076;8.660;2022-09-09T05:33:55;4.40;;;1.60;;
3777;SDS011;1904;50.076;8.660;2022-09-09T05:36:21;13.63;;;2.00;;
3777;SDS011;1904;50.076;8.660;2022-09-09T05:38:49;9.63;;;2.00;;
3777;SDS011;1904;50.076;8.660;2022-09-09T05:41:15;3.90;;;1.73;;
3777;SDS011;1904;50.076;8.660;2022-09-09T05:43:43;3.70;;;1.97;;
3777;SDS011;1904;50.076;8.660;2022-09-09T05:46:15;6.23;;;2.50;;
3777;SDS011;1904;50.076;8.660;2022-09-09T05:48:45;2.30;;;1.57;;
3777;SDS011;1904;50.076;8.660;2022-09-09T05:51:22;6.83;;;2.00;;
3777;SDS011;1904;50.076;8.660;2022-09-09T05:54:07;3.37;;;1.80;;
3777;SDS011;1904;50.076;8.660;2022-09-09T05:56:37;10.70;;;1.70;;
3777;SDS011;1904;50.076;8.660;2022-09-09T05:59:07;6.83;;;1.37;;
3777;SDS011;1904;50.076;8.660;2022-09-09T06:11:08;4.43;;;1.20;;
3777;SDS011;1904;50.076;8.660;2022-09-09T06:13:37;3.77;;;1.30;;
3777;SDS011;1904;50.076;8.660;2022-09-09T06:21:45;1.83;;;1.10;;
3777;SDS011;1904;50.076;8.660;2022-09-09T06:24:12;1.60;;;1.10;;
3777;SDS011;1904;50.076;8.660;2022-09-09T06:26:43;3.20;;;1.03;;
3777;SDS011;1904;50.076;8.660;2022-09-09T06:29:10;3.50;;;1.10;;
3777;SDS011;1904;50.076;8.660;2022-09-09T06:31:37;4.77;;;1.50;;
3777;SDS011;1904;50.076;8.660;2022-09-09T06:34:07;4.10;;;1.40;;
3777;SDS011;1904;50.076;8.660;2022-09-09T06:36:34;5.90;;;1.17;;
3777;SDS011;1904;50.076;8.660;2022-09-09T06:39:02;1.90;;;0.93;;
3777;SDS011;1904;50.076;8.660;2022-09-09T06:41:37;2.93;;;1.10;;
3777;SDS011;1904;50.076;8.660;2022-09-09T06:44:03;7.50;;;1.33;;
3777;SDS011;1904;50.076;8.660;2022-09-09T06:46:31;5.73;;;1.30;;
3777;SDS011;1904;50.076;8.660;2022-09-09T06:49:01;5.37;;;1.17;;
3777;SDS011;1904;50.076;8.660;2022-09-09T06:51:28;5.50;;;1.00;;
3777;SDS011;1904;50.076;8.660;2022-09-09T06:56:49;2.67;;;1.30;;
3777;SDS011;1904;50.076;8.660;2022-09-09T06:59:15;5.40;;;1.50;;
3777;SDS011;1904;50.076;8.660;2022-09-09T07:01:55;4.47;;;1.20;;
3777;SDS011;1904;50.076;8.660;2022-09-09T07:04:22;2.67;;;0.93;;
3777;SDS011;1904;50.076;8.660;2022-09-09T07:06:47;4.00;;;2.00;;
3777;SDS011;1904;50.076;8.660;2022-09-09T07:09:20;7.17;;;1.57;;
3777;SDS011;1904;50.076;8.660;2022-09-09T07:11:46;3.63;;;1.43;;
3777;SDS011;1904;50.076;8.660;2022-09-09T07:14:14;5.27;;;1.20;;
3777;SDS011;1904;50.076;8.660;2022-09-09T07:19:37;5.20;;;1.00;;
3777;SDS011;1904;50.076;8.660;2022-09-09T07:22:07;2.60;;;0.90;;
3777;SDS011;1904;50.076;8.660;2022-09-09T07:24:37;6.83;;;1.20;;
3777;SDS011;1904;50.076;8.660;2022-09-09T07:27:07;3.30;;;1.10;;
3777;SDS011;1904;50.076;8.660;2022-09-09T07:32:37;2.93;;;1.00;;
3777;SDS011;1904;50.076;8.660;2022-09-09T07:35:19;4.20;;;1.37;;
3777;SDS011;1904;50.076;8.660;2022-09-09T07:40:37;3.43;;;1.03;;
3777;SDS011;1904;50.076;8.660;2022-09-09T07:43:07;4.40;;;1.13;;
3777;SDS011;1904;50.076;8.660;2022-09-09T07:45:37;2.90;;;1.20;;
3777;SDS011;1904;50.076;8.660;2022-09-09T07:48:08;4.43;;;1.13;;
3777;SDS011;1904;50.076;8.660;2022-09-09T07:50:37;9.07;;;1.30;;
3777;SDS011;1904;50.076;8.660;2022-09-09T07:53:07;2.87;;;1.30;;
3777;SDS011;1904;50.076;8.660;2022-09-09T07:55:37;5.37;;;1.40;;
3777;SDS011;1904;50.076;8.660;2022-09-09T07:58:07;4.20;;;1.30;;
3777;SDS011;1904;50.076;8.660;2022-09-09T08:00:37;3.20;;;1.40;;
3777;SDS011;1904;50.076;8.660;2022-09-09T08:03:07;4.60;;;1.37;;
3777;SDS011;1904;50.076;8.660;2022-09-09T08:05:37;3.30;;;1.33;;
3777;SDS011;1904;50.076;8.660;2022-09-09T08:08:07;6.43;;;1.40;;
3777;SDS011;1904;50.076;8.660;2022-09-09T08:10:37;9.73;;;1.30;;
3777;SDS011;1904;50.076;8.660;2022-09-09T08:13:08;4.70;;;1.30;;
3777;SDS011;1904;50.076;8.660;2022-09-09T08:15:37;4.70;;;1.30;;
3777;SDS011;1904;50.076;8.660;2022-09-09T08:18:03;3.23;;;1.20;;
3777;SDS011;1904;50.076;8.660;2022-09-09T08:20:31;4.37;;;1.43;;
3777;SDS011;1904;50.076;8.660;2022-09-09T08:26:10;5.67;;;1.33;;
3777;SDS011;1904;50.076;8.660;2022-09-09T08:28:38;6.63;;;1.33;;
3777;SDS011;1904;50.076;8.660;2022-09-09T08:31:14;4.93;;;1.27;;
3777;SDS011;1904;50.076;8.660;2022-09-09T08:33:49;3.50;;;1.20;;
3777;SDS011;1904;50.076;8.660;2022-09-09T08:36:16;3.17;;;1.60;;
3777;SDS011;1904;50.076;8.660;2022-09-09T08:38:43;5.70;;;1.30;;
3777;SDS011;1904;50.076;8.660;2022-09-09T08:44:41;4.70;;;1.50;;
3777;SDS011;1904;50.076;8.660;2022-09-09T08:48:04;10.93;;;1.70;;
3777;SDS011;1904;50.076;8.660;2022-09-09T08:51:01;2.60;;;1.20;;
3777;SDS011;1904;50.076;8.660;2022-09-09T08:53:38;5.47;;;1.40;;
3777;SDS011;1904;50.076;8.660;2022-09-09T08:56:09;5.33;;;1.20;;
3777;SDS011;1904;50.076;8.660;2022-09-09T08:59:02;2.17;;;1.40;;
3777;SDS011;1904;50.076;8.660;2022-09-09T09:01:33;6.50;;;1.77;;
3777;SDS011;1904;50.076;8.660;2022-09-09T09:04:27;5.57;;;1.80;;
3777;SDS011;1904;50.076;8.660;2022-09-09T09:10:04;5.80;;;1.43;;
3777;SDS011;1904;50.076;8.660;2022-09-09T09:12:49;6.10;;;1.80;;
3777;SDS011;1904;50.076;8.660;2022-09-09T09:15:26;7.13;;;1.30;;
3777;SDS011;1904;50.076;8.660;2022-09-09T09:18:07;9.63;;;1.30;;
3777;SDS011;1904;50.076;8.660;2022-09-09T09:20:43;3.00;;;1.20;;
3777;SDS011;1904;50.076;8.660;2022-09-09T09:26:27;9.50;;;1.70;;
3777;SDS011;1904;50.076;8.660;2022-09-09T09:29:09;7.90;;;1.60;;
3777;SDS011;1904;50.076;8.660;2022-09-09T09:31:56;6.33;;;1.77;;
3777;SDS011;1904;50.076;8.660;2022-09-09T09:37:17;6.63;;;1.47;;
3777;SDS011;1904;50.076;8.660;2022-09-09T09:39:55;9.70;;;1.67;;
3777;SDS011;1904;50.076;8.660;2022-09-09T09:42:21;4.50;;;1.60;;
3777;SDS011;1904;50.076;8.660;2022-09-09T09:44:48;5.10;;;1.30;;
3777;SDS011;1904;50.076;8.660;2022-09-09T09:47:17;4.40;;;1.60;;
3777;SDS011;1904;50.076;8.660;2022-09-09T10:02:05;7.93;;;1.93;;
3777;SDS011;1904;50.076;8.660;2022-09-09T10:04:39;7.20;;;2.00;;
3777;SDS011;1904;50.076;8.660;2022-09-09T10:09:56;11.87;;;2.53;;
3777;SDS011;1904;50.076;8.660;2022-09-09T10:36:26;8.70;;;1.77;;
3777;SDS011;1904;50.076;8.660;2022-09-09T10:39:03;9.97;;;1.80;;
3777;SDS011;1904;50.076;8.660;2022-09-09T10:47:54;4.60;;;1.40;;
3777;SDS011;1904;50.076;8.660;2022-09-09T10:53:47;9.57;;;1.40;;
3777;SDS011;1904;50.076;8.660;2022-09-09T10:56:35;7.07;;;1.40;;
3777;SDS011;1904;50.076;8.660;2022-09-09T11:05:05;5.80;;;1.50;;
3777;SDS011;1904;50.076;8.660;2022-09-09T11:15:46;4.77;;;1.50;;
3777;SDS011;1904;50.076;8.660;2022-09-09T11:18:20;8.50;;;1.43;;
3777;SDS011;1904;50.076;8.660;2022-09-09T11:20:48;7.37;;;1.23;;
3777;SDS011;1904;50.076;8.660;2022-09-09T11:23:22;5.77;;;1.10;;
3777;SDS011;1904;50.076;8.660;2022-09-09T11:29:23;5.20;;;1.33;;
3777;SDS011;1904;50.076;8.660;2022-09-09T11:32:23;3.43;;;1.40;;
3777;SDS011;1904;50.076;8.660;2022-09-09T11:35:14;2.83;;;1.00;;
3777;SDS011;1904;50.076;8.660;2022-09-09T11:43:53;2.80;;;1.33;;
3777;SDS011;1904;50.076;8.660;2022-09-09T11:46:35;3.27;;;1.00;;
3777;SDS011;1904;50.076;8.660;2022-09-09T11:49:25;2.60;;;1.30;;
3777;SDS011;1904;50.076;8.660;2022-09-09T11:55:11;5.47;;;1.00;;
3777;SDS011;1904;50.076;8.660;2022-09-09T12:08:46;2.67;;;1.10;;
3777;SDS011;1904;50.076;8.660;2022-09-09T12:11:26;3.23;;;0.80;;
3777;SDS011;1904;50.076;8.660;2022-09-09T12:14:01;2.00;;;0.83;;
3777;SDS011;1904;50.076;8.660;2022-09-09T12:16:34;5.40;;;1.00;;
3777;SDS011;1904;50.076;8.660;2022-09-09T12:19:24;5.43;;;1.20;;
3777;SDS011;1904;50.076;8.660;2022-09-09T12:27:06;4.67;;;1.10;;
3777;SDS011;1904;50.076;8.660;2022-09-09T12:32:35;10.87;;;3.13;;
3777;SDS011;1904;50.076;8.660;2022-09-09T12:37:40;3.77;;;1.03;;
3777;SDS011;1904;50.076;8.660;2022-09-09T12:40:24;3.40;;;1.00;;
3777;SDS011;1904;50.076;8.660;2022-09-09T12:43:34;5.67;;;1.30;;
3777;SDS011;1904;50.076;8.660;2022-09-09T12:45:55;19.20;;;3.20;;
3777;SDS011;1904;50.076;8.660;2022-09-09T12:52:08;6.60;;;1.23;;
3777;SDS011;1904;50.076;8.660;2022-09-09T12:57:29;4.00;;;1.07;;
3777;SDS011;1904;50.076;8.660;2022-09-09T13:03:23;9.13;;;1.57;;
3777;SDS011;1904;50.076;8.660;2022-09-09T13:06:11;5.43;;;1.40;;
3777;SDS011;1904;50.076;8.660;2022-09-09T13:08:42;6.07;;;2.00;;
3777;SDS011;1904;50.076;8.660;2022-09-09T13:11:26;7.77;;;1.63;;
3777;SDS011;1904;50.076;8.660;2022-09-09T13:14:35;6.17;;;0.90;;
3777;SDS011;1904;50.076;8.660;2022-09-09T13:17:15;5.63;;;1.50;;
3777;SDS011;1904;50.076;8.660;2022-09-09T13:19:54;4.10;;;1.20;;
3777;SDS011;1904;50.076;8.660;2022-09-09T13:22:33;10.10;;;1.20;;
3777;SDS011;1904;50.076;8.660;2022-09-09T13:25:18;4.43;;;1.40;;
3777;SDS011;1904;50.076;8.660;2022-09-09T13:30:56;5.07;;;0.90;;
3777;SDS011;1904;50.076;8.660;2022-09-09T13:33:30;2.43;;;0.80;;
3777;SDS011;1904;50.076;8.660;2022-09-09T13:36:03;2.80;;;0.80;;
3777;SDS011;1904;50.076;8.660;2022-09-09T13:41:36;2.27;;;0.90;;
3777;SDS011;1904;50.076;8.660;2022-09-09T13:44:27;2.33;;;0.90;;
3777;SDS011;1904;50.076;8.660;2022-09-09T13:52:56;1.60;;;0.70;;
3777;SDS011;1904;50.076;8.660;2022-09-09T13:55:37;2.20;;;0.70;;
3777;SDS011;1904;50.076;8.660;2022-09-09T14:01:25;1.23;;;0.50;;
3777;SDS011;1904;50.076;8.660;2022-09-09T14:03:52;3.80;;;0.97;;
3777;SDS011;1904;50.076;8.660;2022-09-09T14:09:14;0.93;;;0.57;;
3777;SDS011;1904;50.076;8.660;2022-09-09T14:11:44;0.90;;;0.60;;
3777;SDS011;1904;50.076;8.660;2022-09-09T14:17:19;3.37;;;0.63;;
3777;SDS011;1904;50.076;8.660;2022-09-09T14:19:55;1.30;;;0.50;;
3777;SDS011;1904;50.076;8.660;2022-09-09T14:22:25;1.53;;;0.60;;
3777;SDS011;1904;50.076;8.660;2022-09-09T14:24:55;2.70;;;0.90;;
3777;SDS011;1904;50.076;8.660;2022-09-09T14:27:22;1.57;;;0.87;;
3777;SDS011;1904;50.076;8.660;2022-09-09T14:29:55;6.30;;;0.80;;
3777;SDS011;1904;50.076;8.660;2022-09-09T14:32:25;1.80;;;0.70;;
3777;SDS011;1904;50.076;8.660;2022-09-09T14:38:13;1.70;;;0.83;;
3777;SDS011;1904;50.076;8.660;2022-09-09T14:40:44;1.10;;;0.60;;
3777;SDS011;1904;50.076;8.660;2022-09-09T14:49:38;2.83;;;0.80;;
3777;SDS011;1904;50.076;8.660;2022-09-09T14:55:01;1.10;;;0.57;;
3777;SDS011;1904;50.076;8.660;2022-09-09T14:57:31;5.23;;;0.73;;
3777;SDS011;1904;50.076;8.660;2022-09-09T15:00:02;1.47;;;0.60;;
3777;SDS011;1904;50.076;8.660;2022-09-09T15:02:37;0.60;;;0.60;;
3777;SDS011;1904;50.076;8.660;2022-09-09T15:05:07;1.73;;;0.87;;
3777;SDS011;1904;50.076;8.660;2022-09-09T15:07:37;1.93;;;0.50;;
3777;SDS011;1904;50.076;8.660;2022-09-09T15:10:03;0.70;;;0.60;;
3777;SDS011;1904;50.076;8.660;2022-09-09T15:12:29;0.83;;;0.50;;
3777;SDS011;1904;50.076;8.660;2022-09-09T15:14:55;1.43;;;0.50;;
3777;SDS011;1904;50.076;8.660;2022-09-09T15:17:25;1.83;;;0.77;;
3777;SDS011;1904;50.076;8.660;2022-09-09T15:19:52;1.10;;;0.53;;
3777;SDS011;1904;50.076;8.660;2022-09-09T15:22:25;3.37;;;0.63;;
3777;SDS011;1904;50.076;8.660;2022-09-09T15:24:55;6.10;;;1.57;;
3777;SDS011;1904;50.076;8.660;2022-09-09T15:27:21;2.70;;;0.60;;
3777;SDS011;1904;50.076;8.660;2022-09-09T15:30:01;2.13;;;0.70;;
3777;SDS011;1904;50.076;8.660;2022-09-09T15:32:27;2.20;;;0.60;;
3777;SDS011;1904;50.076;8.660;2022-09-09T15:35:07;7.10;;;0.77;;
3777;SDS011;1904;50.076;8.660;2022-09-09T15:37:37;2.10;;;0.50;;
3777;SDS011;1904;50.076;8.660;2022-09-09T15:40:07;1.30;;;0.60;;
3777;SDS011;1904;50.076;8.660;2022-09-09T15:42:37;1.67;;;0.60;;
3777;SDS011;1904;50.076;8.660;2022-09-09T15:45:07;0.80;;;0.60;;
3777;SDS011;1904;50.076;8.660;2022-09-09T15:50:25;0.93;;;0.50;;
3777;SDS011;1904;50.076;8.660;2022-09-09T15:56:01;1.83;;;0.50;;
3777;SDS011;1904;50.076;8.660;2022-09-09T15:58:29;2.40;;;0.73;;
3777;SDS011;1904;50.076;8.660;2022-09-09T16:01:05;2.50;;;0.50;;
3777;SDS011;1904;50.076;8.660;2022-09-09T16:03:43;2.50;;;0.80;;
3777;SDS011;1904;50.076;8.660;2022-09-09T16:06:14;3.70;;;0.83;;
3777;SDS011;1904;50.076;8.660;2022-09-09T16:08:42;3.47;;;0.67;;
3777;SDS011;1904;50.076;8.660;2022-09-09T16:11:13;3.27;;;0.70;;
3777;SDS011;1904;50.076;8.660;2022-09-09T16:13:41;4.13;;;0.70;;
3777;SDS011;1904;50.076;8.660;2022-09-09T16:16:09;3.77;;;1.07;;
3777;SDS011;1904;50.076;8.660;2022-09-09T16:18:50;2.07;;;0.67;;
3777;SDS011;1904;50.076;8.660;2022-09-09T16:24:02;1.90;;;0.80;;
3777;SDS011;1904;50.076;8.660;2022-09-09T16:26:38;6.17;;;0.87;;
3777;SDS011;1904;50.076;8.660;2022-09-09T16:29:13;2.30;;;0.67;;
3777;SDS011;1904;50.076;8.660;2022-09-09T16:31:46;1.93;;;0.60;;
3777;SDS011;1904;50.076;8.660;2022-09-09T16:34:25;3.20;;;0.70;;
3777;SDS011;1904;50.076;8.660;2022-09-09T16:40:13;3.97;;;0.90;;
3777;SDS011;1904;50.076;8.660;2022-09-09T16:42:49;5.73;;;0.70;;
3777;SDS011;1904;50.076;8.660;2022-09-09T16:45:25;5.40;;;0.93;;
3777;SDS011;1904;50.076;8.660;2022-09-09T16:51:17;0.80;;;0.77;;
3777;SDS011;1904;50.076;8.660;2022-09-09T16:53:50;1.57;;;0.70;;
3777;SDS011;1904;50.076;8.660;2022-09-09T16:56:20;3.33;;;0.90;;
3777;SDS011;1904;50.076;8.660;2022-09-09T16:58:56;4.20;;;1.00;;
3777;SDS011;1904;50.076;8.660;2022-09-09T17:01:24;3.50;;;1.00;;
3777;SDS011;1904;50.076;8.660;2022-09-09T17:03:58;3.63;;;1.07;;
3777;SDS011;1904;50.076;8.660;2022-09-09T17:09:31;6.53;;;1.03;;
3777;SDS011;1904;50.076;8.660;2022-09-09T17:17:44;1.40;;;0.80;;
3777;SDS011;1904;50.076;8.660;2022-09-09T17:23:01;11.30;;;0.97;;
3777;SDS011;1904;50.076;8.660;2022-09-09T17:25:43;1.87;;;1.00;;
3777;SDS011;1904;50.076;8.660;2022-09-09T17:31:02;5.20;;;1.33;;
3777;SDS011;1904;50.076;8.660;2022-09-09T17:33:32;3.43;;;1.40;;
3777;SDS011;1904;50.076;8.660;2022-09-09T17:36:11;2.03;;;0.90;;
3777;SDS011;1904;50.076;8.660;2022-09-09T17:38:41;1.47;;;0.70;;
3777;SDS011;1904;50.076;8.660;2022-09-09T17:41:12;4.33;;;1.20;;
3777;SDS011;1904;50.076;8.660;2022-09-09T17:43:39;4.43;;;1.03;;
3777;SDS011;1904;50.076;8.660;2022-09-09T17:46:17;2.60;;;0.73;;
3777;SDS011;1904;50.076;8.660;2022-09-09T17:48:46;2.83;;;1.23;;
3777;SDS011;1904;50.076;8.660;2022-09-09T17:51:14;1.93;;;0.80;;
3777;SDS011;1904;50.076;8.660;2022-09-09T17:53:49;9.73;;;1.97;;
3777;SDS011;1904;50.076;8.660;2022-09-09T17:56:17;9.43;;;1.47;;
3777;SDS011;1904;50.076;8.660;2022-09-09T17:58:48;2.47;;;0.83;;
3777;SDS011;1904;50.076;8.660;2022-09-09T18:01:20;3.90;;;0.80;;
3777;SDS011;1904;50.076;8.660;2022-09-09T18:03:55;3.83;;;0.80;;
3777;SDS011;1904;50.076;8.660;2022-09-09T18:06:26;2.50;;;0.80;;
3777;SDS011;1904;50.076;8.660;2022-09-09T18:08:57;8.00;;;0.90;;
3777;SDS011;1904;50.076;8.660;2022-09-09T18:11:27;5.30;;;1.10;;
3777;SDS011;1904;50.076;8.660;2022-09-09T18:13:56;7.73;;;0.90;;
3777;SDS011;1904;50.076;8.660;2022-09-09T18:16:32;3.70;;;0.93;;
3777;SDS011;1904;50.076;8.660;2022-09-09T18:22:19;1.97;;;0.80;;
3777;SDS011;1904;50.076;8.660;2022-09-09T18:24:55;2.83;;;0.90;;
3777;SDS011;1904;50.076;8.660;2022-09-09T18:27:25;6.33;;;0.97;;
3777;SDS011;1904;50.076;8.660;2022-09-09T18:32:55;4.00;;;1.33;;
3777;SDS011;1904;50.076;8.660;2022-09-09T18:35:21;1.90;;;1.07;;
3777;SDS011;1904;50.076;8.660;2022-09-09T18:43:50;1.70;;;0.80;;
3777;SDS011;1904;50.076;8.660;2022-09-09T18:46:19;1.23;;;0.70;;
3777;SDS011;1904;50.076;8.660;2022-09-09T18:48:49;4.53;;;0.80;;
3777;SDS011;1904;50.076;8.660;2022-09-09T18:51:19;6.63;;;1.40;;
3777;SDS011;1904;50.076;8.660;2022-09-09T18:53:50;2.63;;;0.77;;
3777;SDS011;1904;50.076;8.660;2022-09-09T18:59:16;2.70;;;1.07;;
3777;SDS011;1904;50.076;8.660;2022-09-09T19:01:50;1.03;;;0.70;;
3777;SDS011;1904;50.076;8.660;2022-09-09T19:04:20;6.20;;;1.13;;
3777;SDS011;1904;50.076;8.660;2022-09-09T19:06:49;3.90;;;1.10;;
3777;SDS011;1904;50.076;8.660;2022-09-09T19:09:27;1.60;;;0.70;;
3777;SDS011;1904;50.076;8.660;2022-09-09T19:11:56;2.30;;;1.00;;
3777;SDS011;1904;50.076;8.660;2022-09-09T19:14:25;6.43;;;1.00;;
3777;SDS011;1904;50.076;8.660;2022-09-09T19:17:07;1.50;;;0.90;;
3777;SDS011;1904;50.076;8.660;2022-09-09T19:19:37;6.10;;;1.43;;
3777;SDS011;1904;50.076;8.660;2022-09-09T19:22:19;1.10;;;1.00;;
3777;SDS011;1904;50.076;8.660;2022-09-09T19:24:49;2.13;;;1.00;;
3777;SDS011;1904;50.076;8.660;2022-09-09T19:30:25;6.27;;;1.00;;
3777;SDS011;1904;50.076;8.660;2022-09-09T19:32:55;3.57;;;0.80;;
3777;SDS011;1904;50.076;8.660;2022-09-09T19:35:23;5.17;;;2.23;;
3777;SDS011;1904;50.076;8.660;2022-09-09T19:43:21;1.43;;;0.90;;
3777;SDS011;1904;50.076;8.660;2022-09-09T19:45:55;2.80;;;1.03;;
3777;SDS011;1904;50.076;8.660;2022-09-09T19:48:23;0.80;;;0.80;;
3777;SDS011;1904;50.076;8.660;2022-09-09T19:50:51;5.17;;;0.90;;
3777;SDS011;1904;50.076;8.660;2022-09-09T19:56:26;3.30;;;1.20;;
3777;SDS011;1904;50.076;8.660;2022-09-09T19:58:56;3.90;;;1.27;;
3777;SDS011;1904;50.076;8.660;2022-09-09T20:01:28;2.03;;;0.77;;
3777;SDS011;1904;50.076;8.660;2022-09-09T20:09:55;1.93;;;0.80;;
3777;SDS011;1904;50.076;8.660;2022-09-09T20:15:37;2.10;;;1.10;;
3777;SDS011;1904;50.076;8.660;2022-09-09T20:18:07;3.20;;;1.10;;
3777;SDS011;1904;50.076;8.660;2022-09-09T20:24:02;2.67;;;0.90;;
3777;SDS011;1904;50.076;8.660;2022-09-09T20:26:37;3.73;;;0.90;;
3777;SDS011;1904;50.076;8.660;2022-09-09T20:29:04;3.47;;;1.00;;
3777;SDS011;1904;50.076;8.660;2022-09-09T20:31:33;1.73;;;0.70;;
3777;SDS011;1904;50.076;8.660;2022-09-09T20:34:01;2.83;;;0.93;;
3777;SDS011;1904;50.076;8.660;2022-09-09T20:36:30;3.47;;;0.90;;
3777;SDS011;1904;50.076;8.660;2022-09-09T20:39:00;1.20;;;0.80;;
3777;SDS011;1904;50.076;8.660;2022-09-09T20:41:32;2.10;;;0.80;;
3777;SDS011;1904;50.076;8.660;2022-09-09T20:44:03;5.53;;;1.00;;
3777;SDS011;1904;50.076;8.660;2022-09-09T20:46:35;1.83;;;0.90;;
3777;SDS011;1904;50.076;8.660;2022-09-09T20:49:04;4.67;;;0.90;;
3777;SDS011;1904;50.076;8.660;2022-09-09T20:51:32;6.63;;;1.17;;
3777;SDS011;1904;50.076;8.660;2022-09-09T20:53:59;6.33;;;0.93;;
3777;SDS011;1904;50.076;8.660;2022-09-09T20:56:38;3.93;;;1.00;;
3777;SDS011;1904;50.076;8.660;2022-09-09T20:59:16;3.00;;;1.00;;
3777;SDS011;1904;50.076;8.660;2022-09-09T21:01:49;3.23;;;0.90;;
3777;SDS011;1904;50.076;8.660;2022-09-09T21:04:25;1.63;;;1.00;;
3777;SDS011;1904;50.076;8.660;2022-09-09T21:06:55;4.20;;;1.20;;
3777;SDS011;1904;50.076;8.660;2022-09-09T21:09:31;2.10;;;1.00;;
3777;SDS011;1904;50.076;8.660;2022-09-09T21:14:55;1.47;;;0.90;;
3777;SDS011;1904;50.076;8.660;2022-09-09T21:17:25;1.10;;;1.00;;
3777;SDS011;1904;50.076;8.660;2022-09-09T21:19:55;4.17;;;1.33;;
3777;SDS011;1904;50.076;8.660;2022-09-09T21:22:25;5.40;;;1.30;;
3777;SDS011;1904;50.076;8.660;2022-09-09T21:24:55;2.07;;;1.57;;
3777;SDS011;1904;50.076;8.660;2022-09-09T21:27:25;6.77;;;1.10;;
3777;SDS011;1904;50.076;8.660;2022-09-09T21:30:07;5.90;;;1.00;;
3777;SDS011;1904;50.076;8.660;2022-09-09T21:32:37;2.03;;;1.23;;
3777;SDS011;1904;50.076;8.660;2022-09-09T21:38:11;9.00;;;1.60;;
3777;SDS011;1904;50.076;8.660;2022-09-09T21:40:55;5.30;;;1.30;;
3777;SDS011;1904;50.076;8.660;2022-09-09T21:43:25;10.23;;;1.00;;
3777;SDS011;1904;50.076;8.660;2022-09-09T21:45:55;1.40;;;0.90;;
3777;SDS011;1904;50.076;8.660;2022-09-09T21:48:25;5.77;;;1.27;;
3777;SDS011;1904;50.076;8.660;2022-09-09T21:51:00;8.00;;;1.10;;
3777;SDS011;1904;50.076;8.660;2022-09-09T21:53:37;4.93;;;1.00;;
3777;SDS011;1904;50.076;8.660;2022-09-09T21:58:56;9.13;;;1.53;;
3777;SDS011;1904;50.076;8.660;2022-09-09T22:01:25;4.03;;;1.50;;
3777;SDS011;1904;50.076;8.660;2022-09-09T22:03:55;2.53;;;1.10;;
3777;SDS011;1904;50.076;8.660;2022-09-09T22:09:15;2.07;;;1.37;;
3777;SDS011;1904;50.076;8.660;2022-09-09T22:21:18;3.57;;;1.00;;
3777;SDS011;1904;50.076;8.660;2022-09-09T22:24:02;2.63;;;1.37;;
3777;SDS011;1904;50.076;8.660;2022-09-09T22:29:31;3.13;;;1.10;;
3777;SDS011;1904;50.076;8.660;2022-09-09T22:32:08;5.53;;;1.60;;
3777;SDS011;1904;50.076;8.660;2022-09-09T22:34:37;2.03;;;1.10;;
3777;SDS011;1904;50.076;8.660;2022-09-09T22:37:04;4.93;;;1.30;;
3777;SDS011;1904;50.076;8.660;2022-09-09T22:39:30;7.20;;;1.33;;
3777;SDS011;1904;50.076;8.660;2022-09-09T22:41:56;4.23;;;1.30;;
3777;SDS011;1904;50.076;8.660;2022-09-09T22:44:23;12.63;;;1.30;;
3777;SDS011;1904;50.076;8.660;2022-09-09T22:47:01;6.00;;;1.30;;
3777;SDS011;1904;50.076;8.660;2022-09-09T22:49:27;2.40;;;1.50;;
3777;SDS011;1904;50.076;8.660;2022-09-09T22:51:55;10.40;;;1.77;;
3777;SDS011;1904;50.076;8.660;2022-09-09T22:54:25;4.07;;;1.53;;
3777;SDS011;1904;50.076;8.660;2022-09-09T22:56:55;11.43;;;2.00;;
3777;SDS011;1904;50.076;8.660;2022-09-09T22:59:25;12.70;;;2.10;;
3777;SDS011;1904;50.076;8.660;2022-09-09T23:02:01;9.30;;;1.90;;
3777;SDS011;1904;50.076;8.660;2022-09-09T23:04:37;1.57;;;1.40;;